WXM80 ListenWXM80 Stop

You find our weather info also at:

UK Metoffice

WeatherCloud

Weather Underground

Northeastern Weather Network

AWEKAS

Citizen Weather Observer Program (CWOP)

HAMweather, WeatherForYou, PWS Weather


Weather Underground History page Text

Daily Summary for July 1, 2016 Units:  English    Metric   Both
« Previous Day
Next Day »
Daily Weekly Monthly Yearly Custom
  High: Low: Average:
Temperature: 82.5 °F 66.8 °F 73.4 °F
Dew Point: 72.5 °F 63.8 °F 68.4 °F
Humidity: 95 % 68 % 85 %
Wind Speed: 7.3 mph 0.0 mph 1.8 mph
Wind Gust: 16.1 mph - -
Wind:- - South
Pressure: 30.00 in 29.81 in -
Precipitation: 0.50 in    
Historical Graphs
 
 
Tabular Data for July 1, 2016
Time Temperature Dew Point Pressure Wind Wind Speed Wind Gust Humidity Rainfall Rate (Hourly)
00:04 72.2 °F 63.8 °F 29.98 in Calm   2.3 mph 75 % 0.00 in
00:09 72.2 °F 64.2 °F 29.98 in SSE 0.5 mph 2.0 mph 76 % 0.00 in
00:14 72.1 °F 64.1 °F 29.98 in SSE 0.4 mph 2.3 mph 76 % 0.00 in
00:19 72.1 °F 64.1 °F 29.98 in SSE 0.9 mph 2.3 mph 76 % 0.00 in
00:24 72.1 °F 64.5 °F 29.99 in SSE 0.7 mph 2.3 mph 77 % 0.00 in
00:29 72.0 °F 64.4 °F 29.99 in SSE 0.3 mph 1.2 mph 77 % 0.00 in
00:34 72.0 °F 64.8 °F 29.99 in SSE 0.2 mph 1.2 mph 78 % 0.00 in
00:39 71.9 °F 64.7 °F 29.99 in SSE 0.1 mph 1.2 mph 78 % 0.00 in
00:45 71.8 °F 64.9 °F 29.99 in South 0.4 mph 2.3 mph 79 % 0.00 in
00:50 71.7 °F 64.8 °F 29.99 in South 0.7 mph 3.5 mph 79 % 0.00 in
00:55 71.6 °F 64.7 °F 29.99 in WSW 1.2 mph 5.8 mph 79 % 0.00 in
01:00 71.5 °F 65.0 °F 29.99 in SSE 0.5 mph 2.3 mph 80 % 0.00 in
01:05 71.4 °F 65.3 °F 29.99 in SSE 0.5 mph 2.3 mph 81 % 0.00 in
01:10 71.3 °F 65.2 °F 29.99 in South 0.9 mph 2.3 mph 81 % 0.00 in
01:15 71.3 °F 65.2 °F 29.99 in South 1.0 mph 3.0 mph 81 % 0.00 in
01:20 71.2 °F 65.4 °F 29.99 in SSE 0.7 mph 2.3 mph 82 % 0.00 in
01:25 71.1 °F 65.3 °F 29.99 in SSW 0.6 mph 2.3 mph 82 % 0.00 in
01:30 71.1 °F 65.3 °F 29.99 in South 0.4 mph 3.5 mph 82 % 0.00 in
01:36 71.0 °F 65.2 °F 30.00 in WSW 1.7 mph 2.3 mph 82 % 0.00 in
01:41 71.0 °F 65.2 °F 30.00 in WSW 0.3 mph 1.2 mph 82 % 0.00 in
01:46 71.0 °F 65.6 °F 30.00 in West 0.7 mph 2.3 mph 83 % 0.00 in
01:51 70.9 °F 65.5 °F 29.99 in West 0.4 mph 2.3 mph 83 % 0.00 in
01:56 70.8 °F 65.7 °F 29.99 in SSE 0.1 mph 2.3 mph 84 % 0.00 in
02:01 70.8 °F 65.7 °F 29.99 in SW 0.5 mph 2.3 mph 84 % 0.00 in
02:06 70.7 °F 65.6 °F 29.99 in WSW 0.8 mph 2.3 mph 84 % 0.00 in
02:11 70.6 °F 65.5 °F 29.99 in SW 0.3 mph 1.2 mph 84 % 0.00 in
02:16 70.5 °F 65.4 °F 29.98 in SW 0.5 mph 1.2 mph 84 % 0.00 in
02:21 70.4 °F 65.7 °F 29.98 in WSW 2.2 mph 3.5 mph 85 % 0.00 in
02:27 70.3 °F 65.6 °F 29.99 in SW 1.2 mph 2.0 mph 85 % 0.00 in
02:32 70.3 °F 65.6 °F 29.98 in SSW 1.9 mph 4.0 mph 85 % 0.00 in
02:37 70.2 °F 65.5 °F 29.98 in SSW 1.1 mph 2.3 mph 85 % 0.00 in
02:42 70.1 °F 65.4 °F 29.98 in SSE 0.4 mph 1.2 mph 85 % 0.00 in
02:47 70.1 °F 65.4 °F 29.98 in SSE 0.4 mph 1.2 mph 85 % 0.00 in
02:52 70.1 °F 65.7 °F 29.98 in WNW 0.3 mph 2.3 mph 86 % 0.00 in
02:57 70.0 °F 65.6 °F 29.98 in WSW 0.2 mph 1.2 mph 86 % 0.00 in
03:02 69.9 °F 65.5 °F 29.98 in WSW 0.6 mph 2.0 mph 86 % 0.00 in
03:07 69.9 °F 65.5 °F 29.98 in WSW 0.1 mph 1.2 mph 86 % 0.00 in
03:12 69.8 °F 65.4 °F 29.98 in SSE 0.3 mph 1.2 mph 86 % 0.00 in
03:18 69.7 °F 65.3 °F 29.98 in West 0.2 mph 2.3 mph 86 % 0.00 in
03:23 69.6 °F 65.2 °F 29.98 in West 0.6 mph 1.2 mph 86 % 0.00 in
03:28 69.6 °F 65.6 °F 29.98 in WSW 0.2 mph 1.2 mph 87 % 0.00 in
03:33 69.5 °F 65.5 °F 29.98 in WSW 0.5 mph 2.3 mph 87 % 0.00 in
03:38 69.5 °F 65.5 °F 29.98 in WSW 0.3 mph 2.3 mph 87 % 0.00 in
03:48 69.4 °F 65.4 °F 29.98 in WSW 0.3 mph 1.2 mph 87 % 0.00 in
03:53 69.3 °F 65.3 °F 29.98 in WSW 0.1 mph 1.2 mph 87 % 0.00 in
03:58 69.3 °F 65.3 °F 29.98 in Calm   1.2 mph 87 % 0.00 in
04:03 69.2 °F 65.2 °F 29.98 in West 0.2 mph 1.2 mph 87 % 0.00 in
04:09 69.1 °F 65.1 °F 29.98 in West 0.1 mph   87 % 0.00 in
04:14 69.0 °F 65.0 °F 29.98 in WSW 0.1 mph 3.5 mph 87 % 0.00 in
04:24 68.9 °F 64.9 °F 29.98 in Calm     87 % 0.00 in
04:29 68.8 °F 64.8 °F 29.98 in WSW 0.2 mph 1.2 mph 87 % 0.00 in
04:34 68.8 °F 65.1 °F 29.98 in WSW 0.5 mph 2.3 mph 88 % 0.00 in
04:39 68.8 °F 65.1 °F 29.98 in WSW 0.9 mph 3.5 mph 88 % 0.00 in
04:44 68.7 °F 65.0 °F 29.98 in Calm     88 % 0.00 in
04:49 68.6 °F 64.9 °F 29.98 in Calm     88 % 0.00 in
04:54 68.5 °F 64.8 °F 29.98 in Calm   1.2 mph 88 % 0.00 in
05:00 68.5 °F 64.8 °F 29.98 in WSW 0.2 mph 1.2 mph 88 % 0.00 in
05:05 68.3 °F 64.6 °F 29.98 in Calm   1.2 mph 88 % 0.00 in
05:10 68.2 °F 64.5 °F 29.98 in WSW 0.3 mph 1.2 mph 88 % 0.00 in
05:15 68.1 °F 64.4 °F 29.98 in Calm     88 % 0.00 in
05:20 68.0 °F 64.6 °F 29.98 in Calm     89 % 0.00 in
05:25 67.9 °F 64.5 °F 29.98 in Calm     89 % 0.00 in
05:30 67.8 °F 64.8 °F 29.98 in Calm   1.2 mph 90 % 0.00 in
05:35 67.7 °F 64.7 °F 29.98 in Calm   1.0 mph 90 % 0.00 in
05:40 67.7 °F 65.0 °F 29.98 in Calm   1.2 mph 91 % 0.00 in
05:46 67.7 °F 65.3 °F 29.98 in Calm   1.2 mph 92 % 0.00 in
05:51 67.7 °F 65.3 °F 29.98 in Calm     92 % 0.00 in
05:56 67.7 °F 65.3 °F 29.98 in Calm     92 % 0.00 in
06:01 67.7 °F 65.3 °F 29.98 in Calm     92 % 0.00 in
06:06 67.7 °F 65.6 °F 29.99 in Calm     93 % 0.00 in
06:11 67.7 °F 65.6 °F 29.99 in WSW 0.3 mph 1.2 mph 93 % 0.00 in
06:16 67.8 °F 65.7 °F 29.99 in Calm   1.2 mph 93 % 0.00 in
06:26 68.1 °F 66.3 °F 29.99 in WSW 0.1 mph 1.2 mph 94 % 0.00 in
06:31 68.2 °F 66.4 °F 29.99 in WSW 0.1 mph   94 % 0.00 in
06:37 68.5 °F 67.0 °F 29.99 in WSW 0.1 mph 1.2 mph 95 % 0.00 in
06:42 68.9 °F 67.4 °F 29.99 in Calm     95 % 0.00 in
06:47 69.3 °F 67.5 °F 29.98 in SE 0.9 mph 3.5 mph 94 % 0.00 in
06:57 70.2 °F 68.1 °F 29.98 in Calm   1.0 mph 93 % 0.00 in
07:02 70.6 °F 68.5 °F 29.99 in SW 0.9 mph 3.0 mph 93 % 0.00 in
07:07 71.0 °F 68.6 °F 29.98 in SE 0.3 mph 2.0 mph 92 % 0.00 in
07:12 71.3 °F 68.5 °F 29.98 in SSE 0.3 mph 2.3 mph 91 % 0.00 in
07:17 71.5 °F 68.7 °F 29.98 in SE 1.3 mph 4.6 mph 91 % 0.00 in
07:28 71.8 °F 68.4 °F 29.99 in Calm   1.2 mph 89 % 0.00 in
07:38 72.0 °F 68.6 °F 29.98 in South 0.1 mph 1.2 mph 89 % 0.00 in
07:43 72.1 °F 68.3 °F 29.98 in South 0.6 mph 2.3 mph 88 % 0.00 in
07:48 72.4 °F 68.3 °F 29.98 in SE 0.6 mph 3.5 mph 87 % 0.00 in
07:53 72.7 °F 68.6 °F 29.98 in SE 0.2 mph 2.3 mph 87 % 0.00 in
07:58 72.9 °F 68.8 °F 29.98 in WSW 0.6 mph 2.3 mph 87 % 0.00 in
08:03 73.2 °F 68.8 °F 29.98 in SE 1.0 mph 1.2 mph 86 % 0.00 in
08:08 73.5 °F 68.7 °F 29.98 in SE 0.8 mph 3.5 mph 85 % 0.00 in
08:13 74.0 °F 69.2 °F 29.98 in SE 3.2 mph 4.6 mph 85 % 0.00 in
08:19 74.3 °F 69.1 °F 29.98 in SSE 2.8 mph 4.0 mph 84 % 0.00 in
08:24 74.5 °F 69.3 °F 29.98 in South 0.9 mph 3.5 mph 84 % 0.00 in
08:29 74.8 °F 69.6 °F 29.99 in SE 2.7 mph 4.6 mph 84 % 0.00 in
08:34 75.1 °F 69.6 °F 29.99 in SSW 1.4 mph 3.5 mph 83 % 0.00 in
08:39 75.2 °F 69.7 °F 29.99 in South 0.8 mph 2.3 mph 83 % 0.00 in
08:44 75.3 °F 69.4 °F 29.98 in WSW 0.3 mph 2.3 mph 82 % 0.00 in
08:49 75.5 °F 70.0 °F 29.98 in SW 0.8 mph 3.5 mph 83 % 0.00 in
08:54 75.5 °F 69.6 °F 29.98 in SE 1.3 mph 3.5 mph 82 % 0.00 in
08:59 75.6 °F 69.7 °F 29.98 in SSE 0.4 mph 3.5 mph 82 % 0.00 in
09:04 75.8 °F 70.3 °F 29.97 in SE 1.4 mph 7.0 mph 83 % 0.00 in
09:10 76.0 °F 70.1 °F 29.97 in South 3.9 mph 8.1 mph 82 % 0.00 in
09:15 75.7 °F 69.1 °F 29.97 in SSE 5.9 mph 10.4 mph 80 % 0.00 in
09:20 75.5 °F 69.3 °F 29.97 in SE 3.3 mph 5.8 mph 81 % 0.00 in
09:25 75.5 °F 69.3 °F 29.97 in SE 3.6 mph 9.2 mph 81 % 0.00 in
09:30 75.8 °F 69.6 °F 29.97 in SSE 3.4 mph 6.9 mph 81 % 0.00 in
09:35 76.0 °F 69.7 °F 29.97 in SSE 5.7 mph 9.2 mph 81 % 0.00 in
09:40 76.0 °F 69.7 °F 29.97 in SSE 3.7 mph 8.1 mph 81 % 0.00 in
09:45 76.3 °F 70.0 °F 29.97 in SE 1.1 mph 2.3 mph 81 % 0.00 in
09:50 76.6 °F 69.6 °F 29.97 in SSE 4.7 mph 6.9 mph 79 % 0.00 in
09:55 76.9 °F 69.9 °F 29.97 in SE 2.9 mph 5.0 mph 79 % 0.00 in
10:01 77.3 °F 70.6 °F 29.97 in SE 1.2 mph 3.5 mph 80 % 0.00 in
10:06 77.4 °F 70.4 °F 29.97 in SSE 3.1 mph 8.1 mph 79 % 0.00 in
10:11 77.5 °F 70.5 °F 29.96 in SSE 2.2 mph 4.6 mph 79 % 0.00 in
10:16 77.5 °F 70.5 °F 29.96 in SE 2.5 mph 5.8 mph 79 % 0.00 in
10:21 77.3 °F 70.3 °F 29.97 in SSE 4.6 mph 10.0 mph 79 % 0.00 in
10:26 76.9 °F 70.3 °F 29.96 in SE 0.9 mph 9.2 mph 80 % 0.00 in
10:31 76.2 °F 69.6 °F 29.96 in SSW 0.4 mph 10.4 mph 80 % 0.00 in
10:36 76.1 °F 69.8 °F 29.96 in ESE 2.7 mph 4.6 mph 81 % 0.00 in
10:41 76.6 °F 70.3 °F 29.96 in SE 3.3 mph 8.0 mph 81 % 0.00 in
10:46 76.6 °F 70.0 °F 29.96 in SW 1.4 mph 3.5 mph 80 % 0.00 in
10:52 76.8 °F 70.2 °F 29.96 in South 1.5 mph 5.8 mph 80 % 0.00 in
10:57 76.8 °F 70.2 °F 29.96 in SW 1.7 mph 6.9 mph 80 % 0.00 in
11:02 76.9 °F 70.3 °F 29.96 in SSW 1.6 mph 4.6 mph 80 % 0.00 in
11:07 77.1 °F 70.8 °F 29.96 in SE 1.2 mph 6.0 mph 81 % 0.00 in
11:12 77.5 °F 71.6 °F 29.96 in Calm     82 % 0.00 in
11:17 77.6 °F 69.8 °F 29.96 in SE 4.6 mph 11.5 mph 77 % 0.00 in
11:22 77.4 °F 69.6 °F 29.96 in South 6.6 mph 10.4 mph 77 % 0.00 in
11:27 77.3 °F 69.5 °F 29.96 in SE 5.8 mph 10.4 mph 77 % 0.00 in
11:32 77.4 °F 69.2 °F 29.95 in SSE 3.8 mph 6.9 mph 76 % 0.00 in
11:38 77.6 °F 69.8 °F 29.95 in SSE 0.6 mph 2.3 mph 77 % 0.00 in
11:43 78.1 °F 69.9 °F 29.95 in South 3.4 mph 6.9 mph 76 % 0.00 in
11:48 78.0 °F 69.4 °F 29.95 in South 6.4 mph 15.0 mph 75 % 0.00 in
11:53 78.3 °F 69.7 °F 29.95 in SSE 2.2 mph 8.1 mph 75 % 0.00 in
11:58 78.3 °F 69.3 °F 29.96 in SSE 5.4 mph 10.4 mph 74 % 0.00 in
12:03 78.4 °F 70.2 °F 29.96 in SSE 1.9 mph 4.6 mph 76 % 0.00 in
12:08 78.5 °F 69.1 °F 29.95 in SE 4.6 mph 5.8 mph 73 % 0.00 in
12:13 78.5 °F 69.1 °F 29.95 in SE 1.8 mph 5.8 mph 73 % 0.00 in
12:24 78.7 °F 69.3 °F 29.95 in ESE 1.7 mph 5.8 mph 73 % 0.00 in
12:29 79.0 °F 70.0 °F 29.94 in SSE 1.7 mph 2.3 mph 74 % 0.00 in
12:39 79.1 °F 70.5 °F 29.93 in South 3.4 mph 6.9 mph 75 % 0.00 in
12:44 79.4 °F 70.4 °F 29.93 in SE 4.8 mph 8.1 mph 74 % 0.00 in
12:49 79.6 °F 70.2 °F 29.93 in SSE 5.6 mph 9.2 mph 73 % 0.00 in
12:54 79.5 °F 70.1 °F 29.93 in SE 2.1 mph 9.2 mph 73 % 0.00 in
12:59 80.0 °F 70.2 °F 29.93 in SSE 7.0 mph 10.4 mph 72 % 0.00 in
13:04 80.1 °F 71.8 °F 29.93 in SSE 2.6 mph 6.0 mph 76 % 0.00 in
13:09 80.4 °F 70.5 °F 29.93 in SSE 3.0 mph 9.2 mph 72 % 0.00 in
13:15 80.5 °F 71.0 °F 29.92 in ESE 1.5 mph 5.8 mph 73 % 0.00 in
13:20 80.5 °F 70.6 °F 29.92 in SSE 1.9 mph 3.5 mph 72 % 0.00 in
13:25 80.7 °F 71.6 °F 29.92 in SSE 0.8 mph 3.5 mph 74 % 0.00 in
13:30 81.0 °F 71.1 °F 29.92 in SE 4.6 mph 9.2 mph 72 % 0.00 in
13:35 81.0 °F 70.7 °F 29.92 in SE 2.2 mph 8.0 mph 71 % 0.00 in
13:40 81.2 °F 70.9 °F 29.92 in SSE 0.7 mph 3.5 mph 71 % 0.00 in
13:45 81.6 °F 71.3 °F 29.92 in SSW 1.3 mph 4.0 mph 71 % 0.00 in
13:50 82.2 °F 72.3 °F 29.92 in SSE 0.5 mph 3.5 mph 72 % 0.00 in
13:55 82.4 °F 72.0 °F 29.92 in SW 3.1 mph 6.9 mph 71 % 0.00 in
14:00 82.5 °F 70.9 °F 29.92 in SSW 2.7 mph 3.5 mph 68 % 0.00 in
14:06 82.1 °F 70.9 °F 29.92 in SSW 2.3 mph 3.5 mph 69 % 0.00 in
14:11 81.6 °F 71.3 °F 29.91 in SSE 2.4 mph 5.8 mph 71 % 0.00 in
14:16 81.6 °F 70.4 °F 29.91 in SE 3.1 mph 11.5 mph 69 % 0.00 in
14:21 81.1 °F 69.5 °F 29.91 in SSE 5.3 mph 10.4 mph 68 % 0.00 in
14:26 80.6 °F 69.5 °F 29.91 in SE 7.3 mph 11.5 mph 69 % 0.00 in
14:31 80.1 °F 69.4 °F 29.91 in SSE 5.9 mph 10.4 mph 70 % 0.00 in
14:36 80.3 °F 70.9 °F 29.90 in SE 1.8 mph 6.0 mph 73 % 0.00 in
14:41 80.9 °F 71.4 °F 29.90 in SSE 3.9 mph 11.0 mph 73 % 0.00 in
14:46 81.2 °F 72.1 °F 29.89 in SE 3.6 mph 5.0 mph 74 % 0.00 in
14:51 81.4 °F 72.3 °F 29.89 in SSE 3.3 mph 6.0 mph 74 % 0.00 in
14:57 81.3 °F 72.2 °F 29.90 in SE 3.9 mph 5.8 mph 74 % 0.00 in
15:02 80.3 °F 71.6 °F 29.89 in South 2.4 mph 12.7 mph 75 % 0.00 in
15:07 79.8 °F 71.9 °F 29.89 in South 5.8 mph 8.1 mph 77 % 0.00 in
15:12 79.3 °F 71.8 °F 29.88 in SE 3.0 mph 9.2 mph 78 % 0.00 in
15:17 78.7 °F 71.6 °F 29.87 in SE 6.1 mph 9.2 mph 79 % 0.00 in
15:22 78.3 °F 72.0 °F 29.87 in SSE 3.1 mph 9.0 mph 81 % 0.00 in
15:27 78.1 °F 71.8 °F 29.87 in SSW 3.9 mph 5.8 mph 81 % 0.00 in
15:32 78.0 °F 72.1 °F 29.86 in South 1.3 mph 4.6 mph 82 % 0.00 in
15:37 78.1 °F 72.2 °F 29.86 in South 0.4 mph 3.5 mph 82 % 0.00 in
15:42 78.5 °F 72.2 °F 29.86 in SSE 2.9 mph 6.9 mph 81 % 0.00 in
15:48 78.4 °F 72.1 °F 29.87 in SSE 1.2 mph 4.6 mph 81 % 0.00 in
15:53 78.3 °F 72.0 °F 29.86 in SSE 4.3 mph 12.7 mph 81 % 0.00 in
15:58 78.1 °F 71.8 °F 29.86 in SSW 5.2 mph 16.1 mph 81 % 0.00 in
16:03 77.9 °F 72.0 °F 29.86 in SSW 2.8 mph 6.9 mph 82 % 0.00 in
16:08 77.8 °F 72.2 °F 29.86 in South 1.6 mph 3.5 mph 83 % 0.00 in
16:13 77.6 °F 72.4 °F 29.85 in South 1.7 mph 3.5 mph 84 % 0.00 in
16:18 77.6 °F 72.0 °F 29.85 in SE 2.7 mph 9.0 mph 83 % 0.00 in
16:23 77.2 °F 72.0 °F 29.85 in SSE 6.6 mph 11.0 mph 84 % 0.00 in
16:28 77.1 °F 72.2 °F 29.84 in SE 5.9 mph 12.0 mph 85 % 0.00 in
16:33 76.9 °F 72.0 °F 29.83 in SSE 5.2 mph 8.1 mph 85 % 0.00 in
16:39 76.9 °F 72.4 °F 29.83 in SE 3.6 mph 8.1 mph 86 % 0.00 in
16:44 76.9 °F 72.0 °F 29.84 in SSW 3.1 mph 6.9 mph 85 % 0.00 in
16:49 76.9 °F 72.0 °F 29.84 in SSE 1.4 mph 11.5 mph 85 % 0.00 in
16:54 77.0 °F 72.1 °F 29.84 in SE 2.9 mph 5.0 mph 85 % 0.00 in
16:59 77.0 °F 72.1 °F 29.85 in SSE 5.3 mph 10.4 mph 85 % 0.00 in
17:04 77.0 °F 72.5 °F 29.84 in SSE 0.7 mph 3.5 mph 86 % 0.00 in
17:09 76.9 °F 72.4 °F 29.84 in SSE 6.4 mph 11.5 mph 86 % 0.00 in
17:14 76.8 °F 72.3 °F 29.83 in SE 1.9 mph 4.6 mph 86 % 0.00 in
17:19 76.6 °F 72.4 °F 29.83 in SSE 2.7 mph 8.1 mph 87 % 0.00 in
17:24 76.4 °F 72.2 °F 29.84 in SSE 5.2 mph 11.5 mph 87 % 0.00 in
17:30 76.2 °F 72.4 °F 29.83 in ESE 0.7 mph 4.6 mph 88 % 0.00 in
17:35 76.0 °F 72.2 °F 29.83 in South 1.7 mph 11.5 mph 88 % 0.00 in
17:40 75.6 °F 72.1 °F 29.83 in SE 2.3 mph 4.6 mph 89 % 0.00 in
17:45 75.3 °F 71.8 °F 29.83 in SE 4.0 mph 9.2 mph 89 % 0.00 in
17:50 75.1 °F 72.0 °F 29.83 in South 1.3 mph 3.5 mph 90 % 0.00 in
17:55 75.0 °F 71.9 °F 29.83 in SE 2.6 mph 4.6 mph 90 % 0.00 in
18:00 74.9 °F 71.8 °F 29.83 in SSW 2.7 mph 5.8 mph 90 % 0.00 in
18:05 74.9 °F 71.8 °F 29.83 in SE 2.9 mph 8.1 mph 90 % 0.00 in
18:10 74.9 °F 71.8 °F 29.84 in South 1.2 mph 3.5 mph 90 % 0.00 in
18:15 74.9 °F 71.4 °F 29.85 in SW 1.6 mph 4.6 mph 89 % 0.00 in
18:21 74.8 °F 71.0 °F 29.86 in SSW 3.5 mph 9.2 mph 88 % 0.00 in
18:26 74.7 °F 70.9 °F 29.87 in West 3.7 mph 5.0 mph 88 % 0.00 in
18:36 74.1 °F 70.0 °F 29.86 in SW 3.7 mph 6.9 mph 87 % 0.03 in
18:41 73.7 °F 69.2 °F 29.85 in WSW 2.3 mph 5.8 mph 86 % 0.03 in
18:46 73.3 °F 69.2 °F 29.86 in SW 3.1 mph 10.4 mph 87 % 0.03 in
18:51 73.1 °F 69.3 °F 29.86 in SSW 2.1 mph 3.5 mph 88 % 0.04 in
18:56 72.8 °F 69.0 °F 29.86 in South 1.8 mph 4.6 mph 88 % 0.05 in
19:01 72.3 °F 68.9 °F 29.86 in South 0.6 mph 2.3 mph 89 % 0.05 in
19:12 71.3 °F 68.2 °F 29.85 in SSE 0.6 mph 3.5 mph 90 % 0.05 in
19:17 71.0 °F 68.2 °F 29.84 in South 1.6 mph 3.5 mph 91 % 0.05 in
19:22 70.8 °F 67.7 °F 29.85 in South 1.0 mph 2.3 mph 90 % 0.05 in
19:27 70.7 °F 67.9 °F 29.84 in SSW 0.1 mph 1.2 mph 91 % 0.04 in
19:32 70.6 °F 67.8 °F 29.84 in SSW 1.3 mph 3.5 mph 91 % 0.03 in
19:37 70.6 °F 67.8 °F 29.84 in Calm     91 % 0.02 in
19:42 70.6 °F 67.8 °F 29.84 in SW 0.8 mph 3.0 mph 91 % 0.02 in
19:47 70.6 °F 68.2 °F 29.84 in Calm   2.3 mph 92 % 0.01 in
19:52 70.6 °F 68.2 °F 29.84 in WSW 0.2 mph 1.2 mph 92 % 0.01 in
19:57 70.6 °F 68.2 °F 29.83 in WSW 0.2 mph 1.2 mph 92 % 0.00 in
20:03 70.5 °F 68.1 °F 29.83 in WSW 0.3 mph 2.3 mph 92 % 0.00 in
20:08 70.5 °F 68.1 °F 29.83 in WSW 0.4 mph 1.2 mph 92 % 0.00 in
20:13 70.5 °F 68.1 °F 29.82 in SW 0.5 mph 2.3 mph 92 % 0.00 in
20:18 70.5 °F 68.4 °F 29.82 in WSW 2.6 mph 5.0 mph 93 % 0.00 in
20:23 70.5 °F 68.4 °F 29.82 in WSW 3.6 mph 5.8 mph 93 % 0.00 in
20:28 70.5 °F 68.4 °F 29.82 in WSW 0.5 mph 2.3 mph 93 % 0.00 in
20:33 70.5 °F 68.4 °F 29.82 in WSW 0.9 mph 3.5 mph 93 % 0.00 in
20:38 70.5 °F 68.4 °F 29.83 in Calm   1.2 mph 93 % 0.00 in
20:43 70.5 °F 68.7 °F 29.83 in Calm   1.2 mph 94 % 0.00 in
20:48 70.5 °F 68.7 °F 29.83 in Calm     94 % 0.00 in
20:54 70.6 °F 68.8 °F 29.83 in Calm     94 % 0.00 in
20:59 70.6 °F 68.8 °F 29.83 in SW 0.8 mph 2.3 mph 94 % 0.00 in
21:04 70.6 °F 68.8 °F 29.83 in SW 0.3 mph 2.3 mph 94 % 0.00 in
21:09 70.6 °F 68.8 °F 29.83 in WSW 0.3 mph 3.5 mph 94 % 0.00 in
21:14 70.6 °F 68.8 °F 29.83 in SSW 0.5 mph 2.3 mph 94 % 0.00 in
21:19 70.7 °F 68.9 °F 29.83 in SW 1.2 mph 7.0 mph 94 % 0.00 in
21:24 70.6 °F 68.8 °F 29.83 in SSW 2.3 mph 5.8 mph 94 % 0.01 in
21:29 70.4 °F 68.6 °F 29.82 in WSW 2.5 mph 3.5 mph 94 % 0.01 in
21:34 70.2 °F 68.1 °F 29.82 in SSW 0.6 mph 2.3 mph 93 % 0.01 in
21:45 69.9 °F 67.5 °F 29.82 in WSW 2.0 mph 4.0 mph 92 % 0.01 in
21:50 69.8 °F 67.4 °F 29.83 in WSW 0.3 mph 1.2 mph 92 % 0.01 in
21:55 69.7 °F 67.3 °F 29.83 in WSW 0.7 mph 3.5 mph 92 % 0.01 in
22:00 69.5 °F 67.1 °F 29.83 in West 1.2 mph 4.6 mph 92 % 0.01 in
22:05 69.4 °F 67.0 °F 29.84 in NNW 4.1 mph 5.0 mph 92 % 0.01 in
22:10 69.3 °F 66.9 °F 29.85 in WSW 4.1 mph 6.9 mph 92 % 0.01 in
22:15 69.4 °F 67.3 °F 29.85 in SSW 4.7 mph 6.9 mph 93 % 0.01 in
22:20 69.4 °F 67.3 °F 29.85 in SSW 3.6 mph 8.1 mph 93 % 0.09 in
22:25 69.5 °F 67.7 °F 29.86 in SSW 2.2 mph 4.6 mph 94 % 0.18 in
22:30 69.5 °F 67.7 °F 29.86 in SW 6.8 mph 13.0 mph 94 % 0.21 in
22:36 69.2 °F 67.1 °F 29.85 in SW 5.3 mph 11.5 mph 93 % 0.30 in
22:41 68.8 °F 66.7 °F 29.85 in WSW 3.0 mph 5.8 mph 93 % 0.32 in
22:46 68.6 °F 66.5 °F 29.85 in WSW 4.2 mph 7.0 mph 93 % 0.33 in
22:51 68.2 °F 65.8 °F 29.85 in WSW 5.3 mph 10.4 mph 92 % 0.33 in
22:56 68.0 °F 65.6 °F 29.85 in WSW 5.6 mph 10.4 mph 92 % 0.35 in
23:01 67.9 °F 65.8 °F 29.85 in SW 3.8 mph 8.1 mph 93 % 0.36 in
23:06 67.7 °F 65.6 °F 29.84 in SSW 6.7 mph 11.5 mph 93 % 0.39 in
23:11 67.5 °F 65.4 °F 29.83 in South 0.3 mph 1.2 mph 93 % 0.43 in
23:16 67.3 °F 65.2 °F 29.83 in WSW 0.2 mph 2.3 mph 93 % 0.44 in
23:21 67.2 °F 65.1 °F 29.83 in WSW 0.4 mph 2.3 mph 93 % 0.33 in
23:27 67.1 °F 65.0 °F 29.82 in WSW 1.2 mph 2.0 mph 93 % 0.25 in
23:32 67.1 °F 65.0 °F 29.82 in WSW 1.1 mph 3.5 mph 93 % 0.21 in
23:37 67.0 °F 64.9 °F 29.81 in WSW 0.3 mph 2.0 mph 93 % 0.12 in
23:42 66.9 °F 65.1 °F 29.81 in WSW 0.4 mph 1.2 mph 94 % 0.12 in
23:47 66.9 °F 65.1 °F 29.81 in WSW 0.5 mph 2.3 mph 94 % 0.11 in
23:52 66.8 °F 65.0 °F 29.81 in WSW 0.9 mph 1.2 mph 94 % 0.11 in
23:57 66.8 °F 65.0 °F 29.81 in WSW 0.2 mph 1.2 mph 94 % 0.08 in
Crab Meadow Weather
Compliments of Weather Underground - 3 mb

Script developed by  Jim McMurry - jmcmurry@mwt.net Adapted for the template by  Wim van der Kuil - Leuven-Template.eu

Weather Terms: Heat Index - The apparent temperature that describes the combined effect of high temperatures and high levels of humidity, which reduces the body's ability to cool itself.